createdAt,value
2018-07-07T00:00:00.534Z,99.9
2018-07-07T00:01:08.430Z,99.9
2018-07-07T00:02:16.324Z,99.9
2018-07-07T00:03:23.945Z,99.9
2018-07-07T00:04:31.558Z,99.9
2018-07-07T00:05:39.448Z,99.9
2018-07-07T00:06:47.338Z,99.9
2018-07-07T00:07:55.224Z,99.9
2018-07-07T00:09:03.113Z,99.9
2018-07-07T00:10:11.008Z,99.9
2018-07-07T00:11:18.889Z,99.9
2018-07-07T00:12:26.507Z,99.9
2018-07-07T00:13:34.143Z,99.9
2018-07-07T00:14:42.031Z,99.9
2018-07-07T00:15:49.914Z,99.9
2018-07-07T00:16:57.533Z,99.9
2018-07-07T00:18:05.411Z,99.9
2018-07-07T00:19:13.302Z,99.9
2018-07-07T00:20:21.186Z,99.9
2018-07-07T00:21:29.082Z,99.9
2018-07-07T00:22:36.967Z,99.9
2018-07-07T00:23:44.852Z,99.9
2018-07-07T00:24:52.736Z,99.9
2018-07-07T00:26:00.624Z,99.9
2018-07-07T00:27:08.567Z,99.9
2018-07-07T00:28:16.505Z,99.9
2018-07-07T00:29:24.406Z,99.9
2018-07-07T00:30:32.290Z,99.9
2018-07-07T00:31:39.932Z,99.9
2018-07-07T00:32:47.806Z,99.9
2018-07-07T00:33:55.692Z,99.9
2018-07-07T00:35:03.312Z,99.9
2018-07-07T00:36:11.200Z,99.9
2018-07-07T00:37:19.099Z,99.9
2018-07-07T00:38:26.998Z,99.9
2018-07-07T00:39:34.901Z,99.9
2018-07-07T00:40:42.786Z,99.9
2018-07-07T00:41:50.674Z,99.9
2018-07-07T00:42:58.557Z,99.9
2018-07-07T00:44:06.449Z,99.9
2018-07-07T00:45:14.342Z,99.9
2018-07-07T00:46:22.233Z,99.9
2018-07-07T00:47:30.128Z,99.9
2018-07-07T00:48:38.012Z,99.9
2018-07-07T00:49:45.906Z,99.9
2018-07-07T00:50:53.512Z,99.9
2018-07-07T00:52:01.413Z,99.9
2018-07-07T00:53:09.462Z,99.9
2018-07-07T00:54:17.403Z,99.9
2018-07-07T00:55:25.322Z,99.9
2018-07-07T00:56:33.224Z,99.9
2018-07-07T00:57:41.115Z,99.9
2018-07-07T00:58:49.007Z,99.9
2018-07-07T00:59:56.901Z,99.9
2018-07-07T01:01:04.815Z,99.9
2018-07-07T01:02:12.704Z,99.9
2018-07-07T01:03:20.595Z,99.9
2018-07-07T01:04:28.489Z,99.9
2018-07-07T01:05:36.375Z,99.9
2018-07-07T01:06:44.256Z,99.9
2018-07-07T01:07:52.151Z,99.9
2018-07-07T01:09:00.037Z,99.9
2018-07-07T01:10:07.917Z,99.9
2018-07-07T01:11:15.809Z,99.9
2018-07-07T01:12:23.697Z,99.9
2018-07-07T01:13:31.588Z,99.9
2018-07-07T01:14:39.468Z,99.9
2018-07-07T01:15:47.595Z,99.9
2018-07-07T01:16:55.583Z,99.9
2018-07-07T01:18:03.486Z,99.9
2018-07-07T01:19:11.376Z,99.9
2018-07-07T01:20:19.268Z,99.9
2018-07-07T01:21:27.156Z,99.9
2018-07-07T01:22:35.044Z,99.9
2018-07-07T01:23:42.926Z,99.9
2018-07-07T01:24:50.551Z,99.9
2018-07-07T01:25:58.435Z,99.9
2018-07-07T01:27:06.330Z,99.9
2018-07-07T01:28:13.936Z,99.9
2018-07-07T01:29:21.993Z,99.9
2018-07-07T01:30:29.642Z,99.9
2018-07-07T01:31:37.573Z,99.9
2018-07-07T01:32:45.457Z,99.9
2018-07-07T01:33:53.347Z,99.9
2018-07-07T01:35:01.239Z,99.9
2018-07-07T01:36:09.127Z,99.9
2018-07-07T01:37:17.012Z,99.9
2018-07-07T01:38:24.900Z,99.9
2018-07-07T01:39:32.787Z,99.9
2018-07-07T01:40:40.399Z,99.9
2018-07-07T01:41:48.010Z,99.9
2018-07-07T01:42:55.897Z,99.9
2018-07-07T01:44:03.510Z,99.9
2018-07-07T01:45:11.394Z,99.9
2018-07-07T01:46:19.282Z,99.9
2018-07-07T01:47:27.172Z,99.9
2018-07-07T01:48:34.810Z,99.9
2018-07-07T01:49:42.769Z,99.9
2018-07-07T01:50:50.656Z,99.9
2018-07-07T01:51:58.563Z,99.9
2018-07-07T01:53:06.180Z,99.9
2018-07-07T01:54:13.796Z,99.9
2018-07-07T01:55:21.680Z,99.9
2018-07-07T01:56:29.572Z,99.9
2018-07-07T01:57:37.468Z,99.9
2018-07-07T01:58:45.353Z,99.9
2018-07-07T01:59:53.242Z,99.9
2018-07-07T02:01:01.332Z,99.9
2018-07-07T02:02:09.225Z,99.9
2018-07-07T02:03:17.113Z,99.9
2018-07-07T02:04:24.770Z,99.9
2018-07-07T02:05:32.661Z,99.9
2018-07-07T02:06:40.561Z,99.9
2018-07-07T02:07:48.454Z,99.9
2018-07-07T02:08:56.342Z,99.9
2018-07-07T02:10:04.238Z,99.9
2018-07-07T02:11:12.134Z,99.9
2018-07-07T02:12:20.020Z,99.9
2018-07-07T02:13:27.631Z,99.9
2018-07-07T02:14:35.529Z,99.9
2018-07-07T02:15:43.410Z,99.9
2018-07-07T02:16:51.293Z,99.9
2018-07-07T02:17:58.901Z,99.9
2018-07-07T02:19:06.785Z,99.9
2018-07-07T02:20:14.672Z,99.9
2018-07-07T02:21:22.557Z,99.9
2018-07-07T02:22:30.166Z,99.9
2018-07-07T02:23:38.049Z,99.9
2018-07-07T02:24:45.950Z,99.9
2018-07-07T02:25:53.572Z,99.9
2018-07-07T02:27:01.459Z,99.9
2018-07-07T02:28:09.349Z,99.9
2018-07-07T02:29:17.235Z,99.9
2018-07-07T02:30:25.123Z,99.9
2018-07-07T02:31:32.732Z,99.9
2018-07-07T02:32:40.337Z,99.9
2018-07-07T02:33:48.218Z,99.9
2018-07-07T02:34:56.102Z,99.9
2018-07-07T02:36:03.983Z,99.9
2018-07-07T02:37:11.870Z,99.9
2018-07-07T02:38:19.762Z,99.9
2018-07-07T02:39:27.405Z,99.9
2018-07-07T02:40:35.308Z,99.9
2018-07-07T02:41:43.195Z,99.9
2018-07-07T02:42:50.804Z,99.9
2018-07-07T02:43:58.690Z,99.9
2018-07-07T02:45:06.579Z,99.9
2018-07-07T02:46:14.507Z,99.9
2018-07-07T02:47:22.250Z,99.9
2018-07-07T02:48:30.137Z,99.9
2018-07-07T02:51:00.562Z,99.9
2018-07-07T02:52:08.450Z,99.9
2018-07-07T02:53:16.349Z,99.9
2018-07-07T02:54:24.240Z,99.9
2018-07-07T02:55:32.140Z,99.9
2018-07-07T02:56:40.032Z,99.9
2018-07-07T02:57:47.643Z,99.9
2018-07-07T02:58:55.531Z,99.9
2018-07-07T03:00:03.435Z,99.9
2018-07-07T03:01:11.318Z,99.9
2018-07-07T03:02:19.203Z,99.9
2018-07-07T03:03:27.242Z,99.9
2018-07-07T03:04:35.227Z,99.9
2018-07-07T03:05:43.112Z,99.9
2018-07-07T03:06:50.736Z,99.9
2018-07-07T03:07:58.630Z,99.9
2018-07-07T03:09:06.532Z,99.9
2018-07-07T03:10:14.418Z,99.9
2018-07-07T03:11:22.315Z,99.9
2018-07-07T03:12:29.927Z,99.9
2018-07-07T03:13:37.817Z,99.9
2018-07-07T03:14:45.698Z,99.9
2018-07-07T03:15:53.584Z,99.9
2018-07-07T03:17:01.527Z,99.9
2018-07-07T03:18:09.432Z,99.9
2018-07-07T03:19:17.318Z,99.9
2018-07-07T03:20:25.206Z,99.9
2018-07-07T03:21:33.096Z,99.9
2018-07-07T03:22:40.980Z,99.9
2018-07-07T03:23:48.871Z,99.9
2018-07-07T03:24:56.792Z,99.9
2018-07-07T03:26:04.408Z,99.9
2018-07-07T03:27:12.295Z,99.9
2018-07-07T03:28:20.184Z,99.9
2018-07-07T03:29:28.081Z,99.9
2018-07-07T03:30:35.964Z,99.9
2018-07-07T03:31:43.855Z,99.9
2018-07-07T03:32:51.752Z,99.9
2018-07-07T03:33:59.640Z,99.9
2018-07-07T03:35:07.528Z,99.9
2018-07-07T03:36:15.136Z,99.9
2018-07-07T03:37:23.021Z,99.9
2018-07-07T03:38:30.642Z,99.9
2018-07-07T03:39:38.521Z,99.9
2018-07-07T03:40:46.406Z,99.9
2018-07-07T03:41:54.293Z,99.9
2018-07-07T03:43:02.186Z,99.9
2018-07-07T03:44:09.798Z,99.9
2018-07-07T03:45:17.682Z,99.9
2018-07-07T03:46:25.589Z,99.9
2018-07-07T03:47:33.524Z,99.9
2018-07-07T03:48:41.426Z,99.9
2018-07-07T03:49:49.042Z,99.9
2018-07-07T03:50:56.927Z,99.9
2018-07-07T03:52:04.816Z,99.9
2018-07-07T03:53:12.435Z,99.9
2018-07-07T03:54:20.329Z,99.9
2018-07-07T03:55:27.938Z,99.9
2018-07-07T03:56:35.820Z,99.9
2018-07-07T03:57:43.756Z,99.9
2018-07-07T03:58:51.433Z,99.9
2018-07-07T03:59:59.516Z,99.9
2018-07-07T04:02:14.712Z,99.9
2018-07-07T04:03:22.604Z,99.9
2018-07-07T04:04:30.490Z,99.9
2018-07-07T04:05:38.098Z,99.9
2018-07-07T04:06:45.983Z,99.9
2018-07-07T04:07:53.880Z,99.9
2018-07-07T04:09:01.759Z,99.9
2018-07-07T04:10:09.687Z,99.9
2018-07-07T04:11:17.570Z,99.9
2018-07-07T04:12:25.471Z,99.9
2018-07-07T04:13:33.363Z,99.9
2018-07-07T04:14:40.974Z,99.9
2018-07-07T04:15:48.868Z,99.9
2018-07-07T04:16:56.762Z,99.9
2018-07-07T04:18:04.655Z,99.9
2018-07-07T04:19:12.531Z,99.9
2018-07-07T04:20:20.137Z,99.9
2018-07-07T04:21:28.023Z,99.9
2018-07-07T04:22:35.647Z,99.9
2018-07-07T04:23:43.532Z,99.9
2018-07-07T04:24:51.413Z,99.9
2018-07-07T04:25:59.300Z,99.9
2018-07-07T04:27:07.194Z,99.9
2018-07-07T04:28:15.081Z,99.9
2018-07-07T04:29:22.973Z,99.9
2018-07-07T04:30:30.918Z,99.9
2018-07-07T04:31:38.885Z,99.9
2018-07-07T04:32:46.769Z,99.9
2018-07-07T04:33:54.384Z,99.9
2018-07-07T04:35:02.021Z,99.9
2018-07-07T04:36:09.912Z,99.9
2018-07-07T04:37:17.795Z,99.9
2018-07-07T04:38:25.684Z,99.9
2018-07-07T04:39:33.595Z,99.9
2018-07-07T04:40:41.481Z,99.9
2018-07-07T04:41:49.370Z,99.9
2018-07-07T04:42:57.270Z,99.9
2018-07-07T04:44:05.170Z,99.9
2018-07-07T04:45:12.784Z,99.9
2018-07-07T04:46:20.673Z,99.9
2018-07-07T04:47:28.564Z,99.9
2018-07-07T04:48:36.452Z,99.9
2018-07-07T04:49:44.056Z,99.9
2018-07-07T04:50:51.948Z,99.9
2018-07-07T04:51:59.839Z,99.9
2018-07-07T04:53:07.728Z,99.9
2018-07-07T04:54:15.622Z,99.9
2018-07-07T04:55:23.517Z,99.9
2018-07-07T04:56:31.127Z,99.9
2018-07-07T04:57:38.746Z,99.9
2018-07-07T04:58:46.362Z,99.9
2018-07-07T04:59:53.974Z,99.9
2018-07-07T05:01:01.885Z,99.9
2018-07-07T05:02:09.781Z,99.9
2018-07-07T05:03:17.904Z,99.9
2018-07-07T05:04:25.790Z,99.9
2018-07-07T05:05:33.979Z,99.9
2018-07-07T05:06:41.874Z,99.9
2018-07-07T05:07:49.803Z,99.9
2018-07-07T05:08:57.687Z,99.9
2018-07-07T05:10:05.591Z,99.9
2018-07-07T05:11:13.483Z,99.9
2018-07-07T05:12:21.365Z,99.9
2018-07-07T05:13:28.980Z,99.9
2018-07-07T05:14:36.862Z,99.9
2018-07-07T05:15:44.478Z,99.9
2018-07-07T05:16:52.367Z,99.9
2018-07-07T05:18:00.257Z,99.9
2018-07-07T05:19:08.162Z,99.9
2018-07-07T05:20:16.054Z,99.9
2018-07-07T05:21:23.939Z,99.9
2018-07-07T05:22:31.857Z,99.9
2018-07-07T05:23:39.784Z,99.9
2018-07-07T05:24:47.678Z,99.9
2018-07-07T05:25:55.563Z,99.9
2018-07-07T05:27:03.452Z,99.9
2018-07-07T05:28:11.339Z,99.9
2018-07-07T05:29:19.249Z,99.9
2018-07-07T05:30:27.134Z,99.9
2018-07-07T05:31:35.021Z,99.9
2018-07-07T05:32:42.915Z,99.9
2018-07-07T05:33:50.806Z,99.9
2018-07-07T05:34:58.695Z,99.9
2018-07-07T05:36:06.581Z,99.9
2018-07-07T05:37:14.522Z,99.9
2018-07-07T05:38:21.973Z,99.9
2018-07-07T05:39:29.577Z,99.9
2018-07-07T05:40:37.468Z,99.9
2018-07-07T05:41:45.357Z,99.9
2018-07-07T05:42:53.241Z,99.9
2018-07-07T05:44:01.138Z,99.9
2018-07-07T05:45:08.756Z,99.9
2018-07-07T05:46:16.647Z,99.9
2018-07-07T05:47:24.534Z,99.9
2018-07-07T05:48:32.459Z,99.9
2018-07-07T05:49:40.355Z,98.1
2018-07-07T05:50:48.247Z,98.6
2018-07-07T05:51:56.148Z,98.1
2018-07-07T05:53:04.057Z,92.7
2018-07-07T05:54:11.949Z,95.1
2018-07-07T05:55:19.846Z,93.2
2018-07-07T05:56:27.461Z,94.9
2018-07-07T05:57:35.349Z,93.7
2018-07-07T05:58:43.239Z,90.8
2018-07-07T05:59:51.126Z,91.2
2018-07-07T06:00:59.019Z,83.2
2018-07-07T06:02:06.925Z,79.1
2018-07-07T06:03:14.816Z,73.7
2018-07-07T06:04:22.702Z,75.9
2018-07-07T06:05:30.050Z,73.7
2018-07-07T06:06:37.938Z,69.4
2018-07-07T06:07:45.547Z,68.1
2018-07-07T06:08:53.173Z,58
2018-07-07T06:10:01.063Z,65.2
2018-07-07T06:11:08.949Z,57.8
2018-07-07T06:12:16.572Z,60.7
2018-07-07T06:13:24.467Z,59.9
2018-07-07T06:14:32.431Z,60.3
2018-07-07T06:15:40.653Z,57.7
2018-07-07T06:16:48.542Z,52.9
2018-07-07T06:17:56.434Z,58.3
2018-07-07T06:19:04.326Z,55.4
2018-07-07T06:20:12.248Z,55.4
2018-07-07T06:21:20.135Z,53.9
2018-07-07T06:22:28.327Z,55.5
2018-07-07T06:23:36.231Z,55.6
2018-07-07T06:24:44.122Z,56.8
2018-07-07T06:25:52.014Z,61.2
2018-07-07T06:26:59.953Z,51.2
2018-07-07T06:28:07.588Z,54.3
2018-07-07T06:29:15.475Z,52
2018-07-07T06:30:23.365Z,48.1
2018-07-07T06:31:31.255Z,45.3
2018-07-07T06:32:39.148Z,43.1
2018-07-07T06:33:47.075Z,46.6
2018-07-07T06:34:54.689Z,47.3
2018-07-07T06:36:02.591Z,48.3
2018-07-07T06:37:10.511Z,39.3
2018-07-07T06:38:18.134Z,47.3
2018-07-07T06:39:26.023Z,42.3
2018-07-07T06:40:33.911Z,37.9
2018-07-07T06:41:41.813Z,44
2018-07-07T06:42:49.706Z,39.1
2018-07-07T06:43:57.381Z,36.1
2018-07-07T06:45:05.273Z,36.4
2018-07-07T06:46:13.168Z,32.8
2018-07-07T06:47:21.053Z,36.7
2018-07-07T06:48:28.942Z,32.7
2018-07-07T06:49:36.840Z,35.3
2018-07-07T06:50:44.468Z,32.7
2018-07-07T06:51:52.364Z,30
2018-07-07T06:53:00.258Z,29.8
2018-07-07T06:54:07.957Z,30.8
2018-07-07T06:55:15.876Z,36
2018-07-07T06:56:23.769Z,30.4
2018-07-07T06:57:31.663Z,32
2018-07-07T06:58:39.283Z,31
2018-07-07T06:59:47.184Z,25.9
2018-07-07T07:00:55.176Z,24.6
2018-07-07T07:02:03.081Z,29.9
2018-07-07T07:03:10.969Z,25.3
2018-07-07T07:04:18.857Z,23.1
2018-07-07T07:05:26.469Z,28.4
2018-07-07T07:06:34.418Z,27.8
2018-07-07T07:07:42.765Z,25.2
2018-07-07T07:08:50.656Z,23.7
2018-07-07T07:09:57.995Z,27.3
2018-07-07T07:11:05.892Z,30.9
2018-07-07T07:12:13.802Z,24.9
2018-07-07T07:13:21.729Z,23.3
2018-07-07T07:14:29.623Z,26.6
2018-07-07T07:15:37.536Z,28.7
2018-07-07T07:16:45.433Z,27.7
2018-07-07T07:17:53.342Z,19
2018-07-07T07:19:01.237Z,25.6
2018-07-07T07:20:09.136Z,24.9
2018-07-07T07:21:17.034Z,21.2
2018-07-07T07:22:24.932Z,24.3
2018-07-07T07:23:32.853Z,20.7
2018-07-07T07:24:40.735Z,26
2018-07-07T07:25:48.631Z,27.4
2018-07-07T07:26:56.528Z,23.4
2018-07-07T07:28:04.419Z,21.1
2018-07-07T07:29:12.036Z,22.8
2018-07-07T07:30:19.928Z,26
2018-07-07T07:31:27.821Z,19.5
2018-07-07T07:32:35.715Z,22.1
2018-07-07T07:33:43.624Z,19.4
2018-07-07T07:34:51.240Z,18.3
2018-07-07T07:35:59.141Z,20.8
2018-07-07T07:37:07.045Z,17.8
2018-07-07T07:38:14.647Z,16.7
2018-07-07T07:39:22.549Z,18.2
2018-07-07T07:40:30.442Z,20
2018-07-07T07:41:38.330Z,19
2018-07-07T07:42:46.220Z,17.1
2018-07-07T07:43:54.113Z,15.7
2018-07-07T07:45:02.167Z,19.5
2018-07-07T07:46:09.516Z,21.6
2018-07-07T07:47:17.134Z,23.4
2018-07-07T07:48:25.027Z,16.7
2018-07-07T07:49:32.924Z,15.2
2018-07-07T07:50:40.484Z,16.4
2018-07-07T07:51:48.379Z,16.3
2018-07-07T07:52:56.273Z,11.2
2018-07-07T07:54:03.894Z,14.3
2018-07-07T07:55:11.794Z,19.4
2018-07-07T07:56:19.691Z,16.8
2018-07-07T07:57:27.599Z,14.5
2018-07-07T07:58:35.879Z,12.4
2018-07-07T07:59:43.787Z,14.1
2018-07-07T08:00:51.419Z,18.7
2018-07-07T08:03:21.871Z,15.5
2018-07-07T08:04:29.774Z,16.6
2018-07-07T08:05:37.661Z,22.8
2018-07-07T08:06:45.572Z,15.8
2018-07-07T08:07:53.195Z,16.7
2018-07-07T08:09:01.089Z,16.7
2018-07-07T08:10:08.989Z,15.4
2018-07-07T08:11:16.884Z,15.5
2018-07-07T08:12:24.509Z,14.6
2018-07-07T08:13:32.396Z,12.1
2018-07-07T08:14:40.296Z,14.8
2018-07-07T08:15:48.190Z,13.5
2018-07-07T08:16:56.083Z,13.8
2018-07-07T08:18:03.975Z,14.2
2018-07-07T08:19:11.869Z,11.7
2018-07-07T08:20:19.766Z,11.9
2018-07-07T08:21:27.679Z,13.4
2018-07-07T08:22:35.657Z,17.4
2018-07-07T08:23:43.782Z,11.4
2018-07-07T08:24:51.680Z,11.8
2018-07-07T08:25:59.574Z,12.7
2018-07-07T08:27:07.471Z,11.6
2018-07-07T08:28:15.366Z,15.8
2018-07-07T08:29:22.981Z,18.8
2018-07-07T08:30:30.892Z,17.9
2018-07-07T08:31:38.793Z,13.7
2018-07-07T08:32:46.688Z,15.4
2018-07-07T08:33:54.604Z,18.8
2018-07-07T08:35:02.225Z,14.8
2018-07-07T08:36:10.126Z,14.1
2018-07-07T08:37:18.022Z,13.6
2018-07-07T08:38:25.648Z,19
2018-07-07T08:39:33.270Z,12.6
2018-07-07T08:42:03.984Z,11.3
2018-07-07T08:43:11.948Z,13.2
2018-07-07T08:44:19.567Z,11
2018-07-07T08:45:27.457Z,11.1
2018-07-07T08:46:35.083Z,9.2
2018-07-07T08:47:42.717Z,10.9
2018-07-07T08:48:50.616Z,17.8
2018-07-07T08:49:58.519Z,11.4
2018-07-07T08:51:06.407Z,8.1
2018-07-07T08:52:14.314Z,12.8
2018-07-07T08:53:21.935Z,7.7
2018-07-07T08:54:29.847Z,14.9
2018-07-07T08:55:37.941Z,11.6
2018-07-07T08:56:45.837Z,7.8
2018-07-07T08:57:53.470Z,10
2018-07-07T08:59:01.370Z,7.9
2018-07-07T09:00:09.264Z,7.5
2018-07-07T09:01:16.885Z,11.4
2018-07-07T09:02:24.513Z,9.7
2018-07-07T09:03:32.417Z,8.6
2018-07-07T09:04:40.316Z,6.8
2018-07-07T09:05:48.207Z,7.4
2018-07-07T09:06:55.831Z,10.1
2018-07-07T09:08:03.728Z,5.5
2018-07-07T09:09:11.634Z,11.7
2018-07-07T09:10:19.533Z,11
2018-07-07T09:11:27.484Z,2.9
2018-07-07T09:12:35.399Z,7.3
2018-07-07T09:13:43.301Z,10.4
2018-07-07T09:14:51.201Z,6.1
2018-07-07T09:15:58.826Z,8.8
2018-07-07T09:17:06.457Z,1.8
2018-07-07T09:18:14.352Z,3.9
2018-07-07T09:19:22.261Z,4.4
2018-07-07T09:20:29.848Z,13
2018-07-07T09:21:37.752Z,12.7
2018-07-07T09:22:45.653Z,7.6
2018-07-07T09:23:53.548Z,7
2018-07-07T09:25:01.165Z,7.5
2018-07-07T09:26:08.502Z,8.8
2018-07-07T09:27:16.401Z,6.8
2018-07-07T09:28:24.320Z,10.3
2018-07-07T09:29:32.221Z,6.5
2018-07-07T09:30:40.179Z,8.8
2018-07-07T09:31:48.078Z,8.9
2018-07-07T09:32:55.988Z,8.2
2018-07-07T09:34:03.891Z,4.3
2018-07-07T09:35:11.794Z,6.4
2018-07-07T09:36:19.420Z,7.4
2018-07-07T09:37:27.318Z,3.7
2018-07-07T09:38:35.210Z,7.8
2018-07-07T09:39:43.103Z,4.7
2018-07-07T09:40:50.997Z,5.2
2018-07-07T09:41:58.617Z,6.8
2018-07-07T09:43:06.520Z,8.1
2018-07-07T09:44:14.433Z,11.3
2018-07-07T09:45:22.325Z,9.1
2018-07-07T09:46:30.239Z,6.2
2018-07-07T09:47:37.853Z,8.7
2018-07-07T09:48:45.747Z,8.4
2018-07-07T09:51:16.239Z,7.1
2018-07-07T09:52:24.154Z,10.6
2018-07-07T09:53:31.766Z,8
2018-07-07T09:54:39.885Z,12.1
2018-07-07T09:55:48.055Z,5
2018-07-07T09:56:55.675Z,6.2
2018-07-07T09:58:03.572Z,1
2018-07-07T09:59:11.471Z,3.9
2018-07-07T10:00:19.368Z,2.6
2018-07-07T10:01:26.991Z,3.3
2018-07-07T10:02:34.891Z,3.9
2018-07-07T10:03:42.794Z,3.5
2018-07-07T10:04:50.697Z,2.2
2018-07-07T10:05:58.595Z,1
2018-07-07T10:07:06.489Z,3.4
2018-07-07T10:08:14.386Z,2.6
2018-07-07T10:09:22.291Z,2.8
2018-07-07T10:10:29.642Z,5.1
2018-07-07T10:11:37.542Z,5.2
2018-07-07T10:12:45.164Z,4.3
2018-07-07T10:13:53.068Z,3.6
2018-07-07T10:15:00.960Z,6.9
2018-07-07T10:16:08.589Z,5.8
2018-07-07T10:17:16.499Z,3.5
2018-07-07T10:18:24.399Z,7.1
2018-07-07T10:19:32.028Z,6
2018-07-07T10:20:39.973Z,4
2018-07-07T10:21:47.723Z,1.5
2018-07-07T10:22:55.637Z,2
2018-07-07T10:24:03.274Z,1.5
2018-07-07T10:25:11.399Z,1.3
2018-07-07T10:26:19.116Z,4.6
2018-07-07T10:27:27.287Z,3.7
2018-07-07T10:28:35.183Z,2
2018-07-07T10:29:43.079Z,1.8
2018-07-07T10:30:50.986Z,4.5
2018-07-07T10:31:58.611Z,1.1
2018-07-07T10:33:06.514Z,1.4
2018-07-07T10:34:14.406Z,1.2
2018-07-07T10:35:22.302Z,1.2
2018-07-07T10:36:30.200Z,2.2
2018-07-07T10:37:38.116Z,1.9
2018-07-07T10:38:46.280Z,5
2018-07-07T10:39:54.172Z,4.3
2018-07-07T10:41:02.072Z,1.4
2018-07-07T10:42:09.980Z,3.2
2018-07-07T10:43:17.924Z,1
2018-07-07T10:44:25.825Z,1
2018-07-07T10:45:35.190Z,2.9
2018-07-07T10:46:43.527Z,1
2018-07-07T10:47:51.439Z,3.2
2018-07-07T10:48:59.457Z,1.7
2018-07-07T10:50:07.956Z,1
2018-07-07T10:51:15.850Z,1
2018-07-07T10:52:23.751Z,1
2018-07-07T10:53:31.370Z,1
2018-07-07T10:54:39.263Z,1
2018-07-07T10:55:46.889Z,1
2018-07-07T10:56:54.788Z,1
2018-07-07T10:58:02.681Z,1
2018-07-07T10:59:10.577Z,1
2018-07-07T11:00:18.481Z,1
2018-07-07T11:01:26.377Z,1
2018-07-07T11:02:34.295Z,1
2018-07-07T11:03:42.377Z,1
2018-07-07T11:04:50.273Z,1
2018-07-07T11:05:58.172Z,1
2018-07-07T11:07:06.068Z,1
2018-07-07T11:08:13.971Z,1
2018-07-07T11:09:21.916Z,1
2018-07-07T11:10:29.817Z,1
2018-07-07T11:11:37.739Z,1
2018-07-07T11:12:45.755Z,1
2018-07-07T11:13:53.648Z,1
2018-07-07T11:15:01.550Z,1
2018-07-07T11:16:09.172Z,1
2018-07-07T11:17:16.532Z,1
2018-07-07T11:18:24.437Z,1
2018-07-07T11:19:32.332Z,1
2018-07-07T11:20:40.233Z,1
2018-07-07T11:21:48.126Z,1
2018-07-07T11:22:56.032Z,1
2018-07-07T11:24:04.177Z,1
2018-07-07T11:25:11.991Z,1
2018-07-07T11:26:19.892Z,1
2018-07-07T11:27:27.791Z,1
2018-07-07T11:28:35.685Z,1
2018-07-07T11:29:43.658Z,1
2018-07-07T11:30:51.694Z,1
2018-07-07T11:31:59.602Z,1
2018-07-07T11:33:07.504Z,1
2018-07-07T11:34:15.402Z,1
2018-07-07T11:35:23.337Z,1
2018-07-07T11:36:31.275Z,1
2018-07-07T11:37:39.832Z,1
2018-07-07T11:38:47.733Z,1
2018-07-07T11:39:55.660Z,1
2018-07-07T11:41:03.556Z,1
2018-07-07T11:42:11.431Z,1
2018-07-07T11:43:19.398Z,1
2018-07-07T11:44:27.533Z,1
2018-07-07T11:45:35.434Z,1
2018-07-07T11:46:43.350Z,1
2018-07-07T11:47:50.983Z,1
2018-07-07T11:48:58.875Z,1
2018-07-07T11:50:06.565Z,1
2018-07-07T11:51:14.302Z,1
2018-07-07T11:52:22.226Z,1
2018-07-07T11:53:30.149Z,1
2018-07-07T11:54:38.047Z,1
2018-07-07T11:55:45.962Z,1
2018-07-07T11:56:53.862Z,1
2018-07-07T11:58:02.005Z,1
2018-07-07T11:59:09.644Z,1
2018-07-07T12:00:17.789Z,1
2018-07-07T12:01:25.428Z,1
2018-07-07T12:02:33.046Z,1
2018-07-07T12:03:40.937Z,1
2018-07-07T12:04:48.952Z,1
2018-07-07T12:05:57.225Z,1
2018-07-07T12:07:05.126Z,1
2018-07-07T12:08:14.406Z,1
2018-07-07T12:09:22.403Z,1
2018-07-07T12:10:30.306Z,1
2018-07-07T12:11:38.277Z,1
2018-07-07T12:12:46.380Z,1
2018-07-07T12:13:54.278Z,1
2018-07-07T12:15:02.178Z,1
2018-07-07T12:16:09.846Z,1
2018-07-07T12:17:17.817Z,1
2018-07-07T12:18:25.836Z,1
2018-07-07T12:19:33.969Z,1
2018-07-07T12:20:41.602Z,1
2018-07-07T12:21:49.497Z,1
2018-07-07T12:22:57.404Z,1
2018-07-07T12:24:05.531Z,1
2018-07-07T12:25:13.433Z,1
2018-07-07T12:26:20.996Z,1
2018-07-07T12:27:28.894Z,1
2018-07-07T12:28:36.545Z,1
2018-07-07T12:29:44.450Z,1
2018-07-07T12:30:52.355Z,1
2018-07-07T12:32:00.258Z,1
2018-07-07T12:33:08.162Z,1
2018-07-07T12:34:16.060Z,1
2018-07-07T12:35:24.802Z,1
2018-07-07T12:36:32.430Z,1
2018-07-07T12:37:40.684Z,1
2018-07-07T12:38:48.569Z,1
2018-07-07T12:39:56.463Z,1
2018-07-07T12:41:04.366Z,1
2018-07-07T12:42:13.577Z,1
2018-07-07T12:43:21.479Z,1
2018-07-07T12:44:29.109Z,1
2018-07-07T12:45:37.007Z,1
2018-07-07T12:46:44.904Z,1
2018-07-07T12:47:52.802Z,1
2018-07-07T12:49:00.693Z,1
2018-07-07T12:50:08.595Z,1
2018-07-07T12:51:16.498Z,1
2018-07-07T12:52:24.394Z,1
2018-07-07T12:53:32.499Z,1
2018-07-07T12:54:40.131Z,1
2018-07-07T12:55:48.026Z,1
2018-07-07T12:56:55.932Z,1
2018-07-07T12:58:03.835Z,1
2018-07-07T12:59:11.739Z,1
2018-07-07T13:00:19.640Z,1
2018-07-07T13:01:27.551Z,1
2018-07-07T13:02:35.449Z,1
2018-07-07T13:03:43.066Z,1
2018-07-07T13:04:50.964Z,1
2018-07-07T13:05:58.880Z,1
2018-07-07T13:07:06.925Z,1
2018-07-07T13:08:14.810Z,1
2018-07-07T13:09:22.719Z,1
2018-07-07T13:10:30.614Z,1
2018-07-07T13:11:38.523Z,1
2018-07-07T13:12:46.428Z,1
2018-07-07T13:13:54.322Z,1
2018-07-07T13:15:02.277Z,1
2018-07-07T13:16:10.339Z,1
2018-07-07T13:17:18.575Z,1
2018-07-07T13:18:26.471Z,1
2018-07-07T13:19:34.369Z,1
2018-07-07T13:20:42.339Z,1
2018-07-07T13:21:50.397Z,1
2018-07-07T13:22:58.026Z,1
2018-07-07T13:24:05.924Z,1
2018-07-07T13:25:13.819Z,1
2018-07-07T13:26:21.473Z,1
2018-07-07T13:27:29.499Z,1
2018-07-07T13:28:37.396Z,1
2018-07-07T13:29:45.293Z,1
2018-07-07T13:30:53.200Z,1
2018-07-07T13:32:00.830Z,1
2018-07-07T13:33:08.821Z,1
2018-07-07T13:34:17.176Z,1
2018-07-07T13:35:26.753Z,1
2018-07-07T13:36:34.658Z,1
2018-07-07T13:37:42.008Z,1
2018-07-07T13:38:49.956Z,1
2018-07-07T13:39:57.429Z,1
2018-07-07T13:41:05.326Z,1
2018-07-07T13:42:13.241Z,1
2018-07-07T13:44:34.780Z,1
2018-07-07T13:45:42.680Z,1
2018-07-07T13:46:50.823Z,1
2018-07-07T13:47:58.721Z,1
2018-07-07T13:49:06.616Z,1
2018-07-07T13:50:14.517Z,1
2018-07-07T13:51:22.420Z,1
2018-07-07T13:52:30.037Z,1
2018-07-07T13:53:37.938Z,1
2018-07-07T13:54:45.563Z,1
2018-07-07T13:55:53.461Z,1
2018-07-07T13:57:01.359Z,1
2018-07-07T13:58:09.305Z,1
2018-07-07T13:59:17.203Z,1
2018-07-07T14:00:25.101Z,1
2018-07-07T14:01:32.995Z,1
2018-07-07T14:02:40.889Z,1
2018-07-07T14:03:48.792Z,1
2018-07-07T14:04:56.689Z,1
2018-07-07T14:06:04.622Z,1
2018-07-07T14:07:12.519Z,1
2018-07-07T14:08:20.145Z,1
2018-07-07T14:09:28.065Z,1
2018-07-07T14:10:36.093Z,1
2018-07-07T14:11:43.993Z,1
2018-07-07T14:12:51.897Z,1
2018-07-07T14:13:59.530Z,1
2018-07-07T14:15:06.881Z,1
2018-07-07T14:16:14.781Z,1
2018-07-07T14:17:22.714Z,1
2018-07-07T14:18:30.859Z,1
2018-07-07T14:19:38.760Z,1
2018-07-07T14:20:46.385Z,1
2018-07-07T14:21:54.011Z,1
2018-07-07T14:23:01.909Z,1
2018-07-07T14:24:09.811Z,1
2018-07-07T14:25:17.714Z,1
2018-07-07T14:26:25.614Z,1
2018-07-07T14:27:33.515Z,1
2018-07-07T14:28:41.417Z,1
2018-07-07T14:29:48.769Z,1
2018-07-07T14:30:56.668Z,1
2018-07-07T14:32:04.565Z,1
2018-07-07T14:33:12.466Z,1
2018-07-07T14:34:20.374Z,1
2018-07-07T14:35:28.272Z,1
2018-07-07T14:36:36.173Z,1
2018-07-07T14:37:44.075Z,1
2018-07-07T14:38:51.973Z,1
2018-07-07T14:39:59.882Z,1
2018-07-07T14:41:07.786Z,1
2018-07-07T14:42:15.684Z,1
2018-07-07T14:43:23.588Z,1
2018-07-07T14:44:31.502Z,1
2018-07-07T14:45:39.400Z,1
2018-07-07T14:46:47.027Z,1
2018-07-07T14:47:54.926Z,1
2018-07-07T14:49:02.847Z,1
2018-07-07T14:50:10.755Z,1
2018-07-07T14:51:18.380Z,1
2018-07-07T14:52:26.317Z,1
2018-07-07T14:53:34.213Z,1
2018-07-07T14:54:42.121Z,1
2018-07-07T14:55:50.023Z,1
2018-07-07T14:56:57.922Z,1
2018-07-07T14:58:05.868Z,1
2018-07-07T14:59:14.364Z,1
2018-07-07T15:00:22.287Z,1
2018-07-07T15:01:30.202Z,1
2018-07-07T15:02:38.110Z,1
2018-07-07T15:03:46.015Z,1
2018-07-07T15:04:53.933Z,1
2018-07-07T15:06:01.836Z,1
2018-07-07T15:07:09.733Z,1
2018-07-07T15:08:17.644Z,1
2018-07-07T15:09:25.539Z,1
2018-07-07T15:10:33.432Z,1
2018-07-07T15:11:41.350Z,1
2018-07-07T15:12:49.259Z,1
2018-07-07T15:13:57.178Z,1
2018-07-07T15:15:04.808Z,1
2018-07-07T15:16:12.700Z,1
2018-07-07T15:17:20.604Z,1
2018-07-07T15:18:28.505Z,1
2018-07-07T15:19:36.405Z,1
2018-07-07T15:20:44.031Z,1
2018-07-07T15:21:51.935Z,1
2018-07-07T15:22:59.896Z,1
2018-07-07T15:24:08.262Z,1
2018-07-07T15:25:17.263Z,1
2018-07-07T15:26:25.177Z,1
2018-07-07T15:27:33.085Z,1
2018-07-07T15:28:40.994Z,1
2018-07-07T15:29:48.895Z,1
2018-07-07T15:30:56.802Z,1
2018-07-07T15:32:04.718Z,1
2018-07-07T15:33:12.909Z,1
2018-07-07T15:34:20.895Z,1
2018-07-07T15:35:29.081Z,1
2018-07-07T15:36:36.712Z,1
2018-07-07T15:37:44.370Z,1
2018-07-07T15:38:52.270Z,1
2018-07-07T15:40:00.169Z,1
2018-07-07T15:41:08.086Z,1
2018-07-07T15:42:15.993Z,1
2018-07-07T15:43:23.906Z,1
2018-07-07T15:44:31.810Z,1
2018-07-07T15:45:39.715Z,1